sensor_id;sensor_type;location;lat;lon;timestamp;P1;P2;P0
74432;PMS7003;62865;53.146;23.172;2023-03-23T00:04:28;27.8;23.6;13
74432;PMS7003;62865;53.146;23.172;2023-03-23T00:09:15;30;25.6;14.8
74432;PMS7003;62865;53.146;23.172;2023-03-23T00:13:49;29.2;24.6;14.8
74432;PMS7003;62865;53.146;23.172;2023-03-23T00:19:28;29.6;24.4;14.8
74432;PMS7003;62865;53.146;23.172;2023-03-23T00:24:01;29;25.2;16.2
74432;PMS7003;62865;53.146;23.172;2023-03-23T00:29:30;27.6;25.2;15.4
74432;PMS7003;62865;53.146;23.172;2023-03-23T00:34:17;30.4;24.2;14.4
74432;PMS7003;62865;53.146;23.172;2023-03-23T00:39:06;33;26.6;16.6
74432;PMS7003;62865;53.146;23.172;2023-03-23T00:44:31;28.8;24.3;15.3
74432;PMS7003;62865;53.146;23.172;2023-03-23T00:48:38;32.8;28.8;16.4
74432;PMS7003;62865;53.146;23.172;2023-03-23T00:54:30;34;29;16.2
74432;PMS7003;62865;53.146;23.172;2023-03-23T00:59:14;32.4;26.6;16.4
74432;PMS7003;62865;53.146;23.172;2023-03-23T01:03:40;30.6;27.4;16
74432;PMS7003;62865;53.146;23.172;2023-03-23T01:09:30;31.2;26.4;15.8
74432;PMS7003;62865;53.146;23.172;2023-03-23T01:13:58;31.2;27.2;15.6
74432;PMS7003;62865;53.146;23.172;2023-03-23T01:19:32;30.2;27.2;15.8
74432;PMS7003;62865;53.146;23.172;2023-03-23T01:24:14;31.8;26.2;15
74432;PMS7003;62865;53.146;23.172;2023-03-23T01:28:41;29.4;27.2;16.2
74432;PMS7003;62865;53.146;23.172;2023-03-23T01:34:34;31.4;27;14.8
74432;PMS7003;62865;53.146;23.172;2023-03-23T01:38:41;29.6;26;15.2
74432;PMS7003;62865;53.146;23.172;2023-03-23T01:45:40;30;27.2;15.2
74432;PMS7003;62865;53.146;23.172;2023-03-23T01:49:17;31;26.6;14.6
74432;PMS7003;62865;53.146;23.172;2023-03-23T01:53:55;29.4;25.2;15.8
74432;PMS7003;62865;53.146;23.172;2023-03-23T01:59:33;26.6;24.2;15.8
74432;PMS7003;62865;53.146;23.172;2023-03-23T02:04:00;31.4;25;15.4
74432;PMS7003;62865;53.146;23.172;2023-03-23T02:09:30;33.2;29;16.6
74432;PMS7003;62865;53.146;23.172;2023-03-23T02:14:08;36.8;30;15.8
74432;PMS7003;62865;53.146;23.172;2023-03-23T02:18:58;33;27.4;15.8
74432;PMS7003;62865;53.146;23.172;2023-03-23T02:24:52;32.4;27;16.8
74432;PMS7003;62865;53.146;23.172;2023-03-23T02:28:54;32.8;27.8;17.4
74432;PMS7003;62865;53.146;23.172;2023-03-23T02:34:35;33.6;28.2;17
74432;PMS7003;62865;53.146;23.172;2023-03-23T02:39:12;35;30.2;16.8
74432;PMS7003;62865;53.146;23.172;2023-03-23T02:44:25;33.2;28.8;17.4
74432;PMS7003;62865;53.146;23.172;2023-03-23T02:49:33;34.8;29.6;18.4
74432;PMS7003;62865;53.146;23.172;2023-03-23T02:54:00;34.6;30;18
74432;PMS7003;62865;53.146;23.172;2023-03-23T02:59:32;33.4;29.2;17.4
74432;PMS7003;62865;53.146;23.172;2023-03-23T03:04:13;32.8;28.4;17.8
74432;PMS7003;62865;53.146;23.172;2023-03-23T03:08:52;34.8;30.4;17
74432;PMS7003;62865;53.146;23.172;2023-03-23T03:14:17;35.8;30.6;17.6
74432;PMS7003;62865;53.146;23.172;2023-03-23T03:18:56;33.2;30.6;18.8
74432;PMS7003;62865;53.146;23.172;2023-03-23T03:24:34;38.8;30.8;17.4
74432;PMS7003;62865;53.146;23.172;2023-03-23T03:29:06;35.4;30;17.4
74432;PMS7003;62865;53.146;23.172;2023-03-23T03:33:48;37.6;30.2;18.4
74432;PMS7003;62865;53.146;23.172;2023-03-23T03:39:05;34.2;29.8;18.2
74432;PMS7003;62865;53.146;23.172;2023-03-23T03:43:48;34.2;29.4;17.4
74432;PMS7003;62865;53.146;23.172;2023-03-23T03:49:30;34.8;30;17.6
74432;PMS7003;62865;53.146;23.172;2023-03-23T03:54:14;37.6;31.2;19.2
74432;PMS7003;62865;53.146;23.172;2023-03-23T03:58:56;33.8;29.6;18
74432;PMS7003;62865;53.146;23.172;2023-03-23T04:04:14;36;31;17.6
74432;PMS7003;62865;53.146;23.172;2023-03-23T04:08:41;42.2;33;18.4
74432;PMS7003;62865;53.146;23.172;2023-03-23T04:14:31;36.8;31.4;18.6
74432;PMS7003;62865;53.146;23.172;2023-03-23T04:19:10;39.8;33;19
74432;PMS7003;62865;53.146;23.172;2023-03-23T04:23:38;40.4;33.4;19.8
74432;PMS7003;62865;53.146;23.172;2023-03-23T04:28:52;38.2;31.6;19
74432;PMS7003;62865;53.146;23.172;2023-03-23T04:33:50;40;33;19
74432;PMS7003;62865;53.146;23.172;2023-03-23T04:39:30;42.2;34;20
74432;PMS7003;62865;53.146;23.172;2023-03-23T04:44:14;40.4;34.2;20.6
74432;PMS7003;62865;53.146;23.172;2023-03-23T04:48:47;44;35.8;21.8
74432;PMS7003;62865;53.146;23.172;2023-03-23T04:54:13;44.2;35.4;21.4
74432;PMS7003;62865;53.146;23.172;2023-03-23T04:58:49;40.2;33.8;20.8
74432;PMS7003;62865;53.146;23.172;2023-03-23T05:04:33;37.8;32;19.6
74432;PMS7003;62865;53.146;23.172;2023-03-23T05:09:13;40.2;33.4;20
74432;PMS7003;62865;53.146;23.172;2023-03-23T05:13:39;41.8;34.8;20
74432;PMS7003;62865;53.146;23.172;2023-03-23T05:18:40;40.2;33.2;21
74432;PMS7003;62865;53.146;23.172;2023-03-23T05:23:56;41.4;34.6;20.2
74432;PMS7003;62865;53.146;23.172;2023-03-23T05:29:31;41.4;33.8;19.2
74432;PMS7003;62865;53.146;23.172;2023-03-23T05:34:11;44.2;36;21.4
74432;PMS7003;62865;53.146;23.172;2023-03-23T05:38:55;41.2;33;20.6
74432;PMS7003;62865;53.146;23.172;2023-03-23T05:44:13;45.4;35.8;21.6
74432;PMS7003;62865;53.146;23.172;2023-03-23T05:48:59;41.3;33.5;19.5
74432;PMS7003;62865;53.146;23.172;2023-03-23T05:54:33;45.2;36.2;21
74432;PMS7003;62865;53.146;23.172;2023-03-23T05:59:13;40.2;32.2;20.8
74432;PMS7003;62865;53.146;23.172;2023-03-23T06:03:39;45.4;35;21.2
74432;PMS7003;62865;53.146;23.172;2023-03-23T06:09:07;41.4;33.2;19.8
74432;PMS7003;62865;53.146;23.172;2023-03-23T06:13:57;39.4;32.6;19.8
74432;PMS7003;62865;53.146;23.172;2023-03-23T06:18:51;41;33.2;20.6
74432;PMS7003;62865;53.146;23.172;2023-03-23T06:24:33;40.4;31.8;20.8
74432;PMS7003;62865;53.146;23.172;2023-03-23T06:28:41;42;33.8;21
74432;PMS7003;62865;53.146;23.172;2023-03-23T06:34:09;40;34.2;21
74432;PMS7003;62865;53.146;23.172;2023-03-23T06:38:57;40.4;33.4;21.2
74432;PMS7003;62865;53.146;23.172;2023-03-23T06:44:33;40.8;34.2;22.4
74432;PMS7003;62865;53.146;23.172;2023-03-23T06:49:13;41.6;34.8;21.8
74432;PMS7003;62865;53.146;23.172;2023-03-23T06:53:55;42.8;35.2;21.6
74432;PMS7003;62865;53.146;23.172;2023-03-23T06:59:15;44.4;35.4;21.4
74432;PMS7003;62865;53.146;23.172;2023-03-23T07:03:59;43.4;34.4;21.2
74432;PMS7003;62865;53.146;23.172;2023-03-23T07:09:33;41.6;34.4;20.8
74432;PMS7003;62865;53.146;23.172;2023-03-23T07:13:41;44.4;35.6;22
74432;PMS7003;62865;53.146;23.172;2023-03-23T07:18:49;45.8;36.6;21.8
74432;PMS7003;62865;53.146;23.172;2023-03-23T07:24:13;43.2;34.8;21.8
74432;PMS7003;62865;53.146;23.172;2023-03-23T07:28:41;44.8;34.8;21.2
74432;PMS7003;62865;53.146;23.172;2023-03-23T07:34:31;41.6;34;21
74432;PMS7003;62865;53.146;23.172;2023-03-23T07:38:39;40.6;33.6;21.8
74432;PMS7003;62865;53.146;23.172;2023-03-23T07:44:05;45.6;35.8;22.2
74432;PMS7003;62865;53.146;23.172;2023-03-23T07:49:05;45.2;35.8;21.4
74432;PMS7003;62865;53.146;23.172;2023-03-23T07:53:59;44.8;35.2;22.4
74432;PMS7003;62865;53.146;23.172;2023-03-23T07:59:35;47.2;36.8;23
74432;PMS7003;62865;53.146;23.172;2023-03-23T08:04:13;44.6;36.4;22.6
74432;PMS7003;62865;53.146;23.172;2023-03-23T08:09:07;43;35.4;21.2
74432;PMS7003;62865;53.146;23.172;2023-03-23T08:14:13;45.6;37.2;23
74432;PMS7003;62865;53.146;23.172;2023-03-23T08:18:39;46.2;38.2;23.4
74432;PMS7003;62865;53.146;23.172;2023-03-23T08:24:31;43.4;35.6;22.6
74432;PMS7003;62865;53.146;23.172;2023-03-23T08:28:41;42.4;35;22.4
74432;PMS7003;62865;53.146;23.172;2023-03-23T08:33:39;43;34.6;21.8
74432;PMS7003;62865;53.146;23.172;2023-03-23T08:39:13;40.6;34.2;21.6
74432;PMS7003;62865;53.146;23.172;2023-03-23T08:44:07;37.6;31.6;20.4
74432;PMS7003;62865;53.146;23.172;2023-03-23T08:49:29;35.8;30.4;18.6
74432;PMS7003;62865;53.146;23.172;2023-03-23T08:54:11;38.2;32.2;21
74432;PMS7003;62865;53.146;23.172;2023-03-23T08:59:05;35;30.8;19.4
74432;PMS7003;62865;53.146;23.172;2023-03-23T09:03:49;30;26.6;16.8
74432;PMS7003;62865;53.146;23.172;2023-03-23T09:08:55;31;24.8;17.4
74432;PMS7003;62865;53.146;23.172;2023-03-23T09:14:31;26.6;23.6;15.4
74432;PMS7003;62865;53.146;23.172;2023-03-23T09:18:57;21.6;20.4;13.4
74432;PMS7003;62865;53.146;23.172;2023-03-23T09:23:55;21.4;18.2;12.2
74432;PMS7003;62865;53.146;23.172;2023-03-23T09:29:15;20.4;17.4;12
74432;PMS7003;62865;53.146;23.172;2023-03-23T09:33:57;22.4;19.2;12.8
74432;PMS7003;62865;53.146;23.172;2023-03-23T09:39:31;20.6;17.8;12.6
74432;PMS7003;62865;53.146;23.172;2023-03-23T09:44:15;22.4;19.8;12
74432;PMS7003;62865;53.146;23.172;2023-03-23T09:48:41;21.8;19;12.8
74432;PMS7003;62865;53.146;23.172;2023-03-23T09:54:19;21.4;19.6;12.6
74432;PMS7003;62865;53.146;23.172;2023-03-23T09:58:51;21.8;20;13.4
74432;PMS7003;62865;53.146;23.172;2023-03-23T10:04:31;17.2;16.4;10.6
74432;PMS7003;62865;53.146;23.172;2023-03-23T10:09:15;15.4;14;9.4
74432;PMS7003;62865;53.146;23.172;2023-03-23T10:13:54;18;14.6;10
74432;PMS7003;62865;53.146;23.172;2023-03-23T10:19:15;17.2;15.4;9.6
74432;PMS7003;62865;53.146;23.172;2023-03-23T10:23:43;18.4;17;11
74432;PMS7003;62865;53.146;23.172;2023-03-23T10:29:34;17.2;15.2;10.2
74432;PMS7003;62865;53.146;23.172;2023-03-23T10:34:17;14.2;12.6;9
74432;PMS7003;62865;53.146;23.172;2023-03-23T10:38:40;13.8;12.2;8.2
74432;PMS7003;62865;53.146;23.172;2023-03-23T10:43:41;8.6;7.2;4.6
74432;PMS7003;62865;53.146;23.172;2023-03-23T10:49:18;7.6;6.2;4.6
74432;PMS7003;62865;53.146;23.172;2023-03-23T10:54:35;9;7.4;5.4
74432;PMS7003;62865;53.146;23.172;2023-03-23T10:59:17;9;7.3;5.3
74432;PMS7003;62865;53.146;23.172;2023-03-23T11:04:10;9.8;7;5.4
74432;PMS7003;62865;53.146;23.172;2023-03-23T11:08:47;7.8;7.8;5.4
74432;PMS7003;62865;53.146;23.172;2023-03-23T11:13:42;10.6;8.2;5.8
74432;PMS7003;62865;53.146;23.172;2023-03-23T11:19:34;11;8;6
74432;PMS7003;62865;53.146;23.172;2023-03-23T11:24:15;9;8.6;6
74432;PMS7003;62865;53.146;23.172;2023-03-23T11:28:51;9;7.8;5.4
74432;PMS7003;62865;53.146;23.172;2023-03-23T11:34:09;8.4;7.8;5.2
74432;PMS7003;62865;53.146;23.172;2023-03-23T11:38:57;9.4;7.8;5.2
74432;PMS7003;62865;53.146;23.172;2023-03-23T11:44:34;8;7.8;5.2
74432;PMS7003;62865;53.146;23.172;2023-03-23T11:49:18;8.6;7.2;5.2
74432;PMS7003;62865;53.146;23.172;2023-03-23T11:53:44;9;7.6;5.2
74432;PMS7003;62865;53.146;23.172;2023-03-23T11:59:17;11.6;10;6.8
74432;PMS7003;62865;53.146;23.172;2023-03-23T12:03:54;11;10.8;7
74432;PMS7003;62865;53.146;23.172;2023-03-23T12:09:31;10.8;9.2;6.4
74432;PMS7003;62865;53.146;23.172;2023-03-23T12:14:02;11;8.6;6
74432;PMS7003;62865;53.146;23.172;2023-03-23T12:18:41;9.6;9.2;6.2
74432;PMS7003;62865;53.146;23.172;2023-03-23T12:24:33;10.4;8.4;6
74432;PMS7003;62865;53.146;23.172;2023-03-23T12:28:43;9.6;8.8;5.8
74432;PMS7003;62865;53.146;23.172;2023-03-23T12:34:24;8.2;7.6;5.8
74432;PMS7003;62865;53.146;23.172;2023-03-23T12:39:04;9.4;8.4;6
74432;PMS7003;62865;53.146;23.172;2023-03-23T12:43:40;10.8;9.2;5.8
74432;PMS7003;62865;53.146;23.172;2023-03-23T12:49:18;9.6;7.8;5.2
74432;PMS7003;62865;53.146;23.172;2023-03-23T12:53:58;9.6;8.4;5.8
74432;PMS7003;62865;53.146;23.172;2023-03-23T12:59:25;6.6;6.2;4.2
74432;PMS7003;62865;53.146;23.172;2023-03-23T13:03:39;5.6;4.8;3.4
74432;PMS7003;62865;53.146;23.172;2023-03-23T13:09:11;5;4.2;2.8
74432;PMS7003;62865;53.146;23.172;2023-03-23T13:14:36;4.6;4;3.2
74432;PMS7003;62865;53.146;23.172;2023-03-23T13:19:03;4.8;3.8;2.8
74432;PMS7003;62865;53.146;23.172;2023-03-23T13:24:24;4.8;4.8;3.4
74432;PMS7003;62865;53.146;23.172;2023-03-23T13:29:13;5.2;4.2;3.2
74432;PMS7003;62865;53.146;23.172;2023-03-23T13:33:52;7.4;5.2;4
74432;PMS7003;62865;53.146;23.172;2023-03-23T13:39:31;6.6;5.4;4
74432;PMS7003;62865;53.146;23.172;2023-03-23T13:43:47;8.2;6.8;4.4
74432;PMS7003;62865;53.146;23.172;2023-03-23T13:49:25;7.4;6.6;4.6
74432;PMS7003;62865;53.146;23.172;2023-03-23T13:54:14;8.2;7.4;5.6
74432;PMS7003;62865;53.146;23.172;2023-03-23T13:58:52;9.8;7.8;5.4
74432;PMS7003;62865;53.146;23.172;2023-03-23T14:04:33;7.6;6.8;4.8
74432;PMS7003;62865;53.146;23.172;2023-03-23T14:09:06;8.6;7;5.2
74432;PMS7003;62865;53.146;23.172;2023-03-23T14:14:24;9.8;8.8;6
74432;PMS7003;62865;53.146;23.172;2023-03-23T14:19:00;11;8.8;6.4
74432;PMS7003;62865;53.146;23.172;2023-03-23T14:23:39;10.6;9.6;6.2
74432;PMS7003;62865;53.146;23.172;2023-03-23T14:29:31;11.4;9.8;7
74432;PMS7003;62865;53.146;23.172;2023-03-23T14:34:00;13;11.6;7.8
74432;PMS7003;62865;53.146;23.172;2023-03-23T14:39:26;14.6;12.6;8
74432;PMS7003;62865;53.146;23.172;2023-03-23T14:43:58;13.8;11.6;9
74432;PMS7003;62865;53.146;23.172;2023-03-23T14:48:39;12.6;11;8.6
74432;PMS7003;62865;53.146;23.172;2023-03-23T14:54:35;12.4;11.2;8.2
74432;PMS7003;62865;53.146;23.172;2023-03-23T14:59:17;12.8;11.2;8.4
74432;PMS7003;62865;53.146;23.172;2023-03-23T15:04:23;13;11.6;8.6
74432;PMS7003;62865;53.146;23.172;2023-03-23T15:09:02;15.2;13.2;9.8
74432;PMS7003;62865;53.146;23.172;2023-03-23T15:13:42;14;13.2;9.2
74432;PMS7003;62865;53.146;23.172;2023-03-23T15:19:37;15.8;13.6;9.2
74432;PMS7003;62865;53.146;23.172;2023-03-23T15:24:02;15;14.2;10.6
74432;PMS7003;62865;53.146;23.172;2023-03-23T15:29:12;12.8;11.6;8
74432;PMS7003;62865;53.146;23.172;2023-03-23T15:33:41;15.2;13.8;9.4
74432;PMS7003;62865;53.146;23.172;2023-03-23T15:38:42;15.2;14.2;9.8
74432;PMS7003;62865;53.146;23.172;2023-03-23T15:44:37;14;12.2;9
74432;PMS7003;62865;53.146;23.172;2023-03-23T15:49:04;13.2;11.4;8.4
74432;PMS7003;62865;53.146;23.172;2023-03-23T15:54:28;12.2;10.6;7.8
74432;PMS7003;62865;53.146;23.172;2023-03-23T15:58:41;11.8;11.4;8.6
74432;PMS7003;62865;53.146;23.172;2023-03-23T16:03:59;11;9.8;7.3
74432;PMS7003;62865;53.146;23.172;2023-03-23T16:09:27;10.2;8.8;6.6
74432;PMS7003;62865;53.146;23.172;2023-03-23T16:13:57;9.2;8.4;6
74432;PMS7003;62865;53.146;23.172;2023-03-23T16:19:01;9.8;9;6.4
74432;PMS7003;62865;53.146;23.172;2023-03-23T16:24:17;11.8;10;7.2
74432;PMS7003;62865;53.146;23.172;2023-03-23T16:29:08;12.2;11;7.6
74432;PMS7003;62865;53.146;23.172;2023-03-23T16:33:41;14;12.6;9.8
74432;PMS7003;62865;53.146;23.172;2023-03-23T16:38:51;13.6;12.4;8.8
74432;PMS7003;62865;53.146;23.172;2023-03-23T16:44:35;15.6;14.2;10
74432;PMS7003;62865;53.146;23.172;2023-03-23T16:49:01;16;14.6;10
74432;PMS7003;62865;53.146;23.172;2023-03-23T16:53:51;17.6;15.2;10.4
74432;PMS7003;62865;53.146;23.172;2023-03-23T16:58:41;17.8;15.8;11.4
74432;PMS7003;62865;53.146;23.172;2023-03-23T17:03:53;17.4;16;11
74432;PMS7003;62865;53.146;23.172;2023-03-23T17:09:33;18;16.2;11.4
74432;PMS7003;62865;53.146;23.172;2023-03-23T17:14:05;20.6;17.2;12.2
74432;PMS7003;62865;53.146;23.172;2023-03-23T17:18:49;19;17.4;12
74432;PMS7003;62865;53.146;23.172;2023-03-23T17:23:55;19.6;18.2;12.2
74432;PMS7003;62865;53.146;23.172;2023-03-23T17:28:51;21.2;18.2;13
74432;PMS7003;62865;53.146;23.172;2023-03-23T17:34:29;19;18.2;12
74432;PMS7003;62865;53.146;23.172;2023-03-23T17:39:15;20;18.6;13
74432;PMS7003;62865;53.146;23.172;2023-03-23T17:43:53;21.6;19.8;13.2
74432;PMS7003;62865;53.146;23.172;2023-03-23T17:48:41;22;20.2;14.6
74432;PMS7003;62865;53.146;23.172;2023-03-23T17:54:06;22.6;21.6;13.6
74432;PMS7003;62865;53.146;23.172;2023-03-23T17:59:31;24.6;22.2;15
74432;PMS7003;62865;53.146;23.172;2023-03-23T18:03:41;25.2;21.8;14.2
74432;PMS7003;62865;53.146;23.172;2023-03-23T18:08:53;22.8;21.6;14.4
74432;PMS7003;62865;53.146;23.172;2023-03-23T18:14:07;22.6;21.2;14.6
74432;PMS7003;62865;53.146;23.172;2023-03-23T18:18:41;25.6;21.6;14.2
74432;PMS7003;62865;53.146;23.172;2023-03-23T18:23:43;27.2;24;15.2
74432;PMS7003;62865;53.146;23.172;2023-03-23T18:28:53;23.2;21.6;14
74432;PMS7003;62865;53.146;23.172;2023-03-23T18:34:05;27.2;24.2;15.6
74432;PMS7003;62865;53.146;23.172;2023-03-23T18:38:55;24.2;21;14.8
74432;PMS7003;62865;53.146;23.172;2023-03-23T18:44:25;27.2;24.4;16.6
74432;PMS7003;62865;53.146;23.172;2023-03-23T18:49:33;25.8;23.8;15.4
74432;PMS7003;62865;53.146;23.172;2023-03-23T18:54:17;22.6;19.4;12.8
74432;PMS7003;62865;53.146;23.172;2023-03-23T18:59:31;22.8;21.4;13.6
74432;PMS7003;62865;53.146;23.172;2023-03-23T19:04:07;25;22.4;14
74432;PMS7003;62865;53.146;23.172;2023-03-23T19:08:53;22.6;20.2;13.4
74432;PMS7003;62865;53.146;23.172;2023-03-23T19:14:32;22;19.4;13
74432;PMS7003;62865;53.146;23.172;2023-03-23T19:18:41;25.2;21.8;13.6
74432;PMS7003;62865;53.146;23.172;2023-03-23T19:23:41;22.6;19.6;13.6
74432;PMS7003;62865;53.146;23.172;2023-03-23T19:29:08;21.4;19;12.2
74432;PMS7003;62865;53.146;23.172;2023-03-23T19:33:53;22.2;20.6;12.8
74432;PMS7003;62865;53.146;23.172;2023-03-23T19:39:33;21.4;19.2;13.2
74432;PMS7003;62865;53.146;23.172;2023-03-23T19:44:17;24.2;21;13.6
74432;PMS7003;62865;53.146;23.172;2023-03-23T19:48:51;24.4;21.2;13.6
74432;PMS7003;62865;53.146;23.172;2023-03-23T19:53:41;21.8;20.4;13
74432;PMS7003;62865;53.146;23.172;2023-03-23T19:59:05;22.8;21.4;13.6
74432;PMS7003;62865;53.146;23.172;2023-03-23T20:04:33;21;19.6;12.6
74432;PMS7003;62865;53.146;23.172;2023-03-23T20:09:01;24;20.6;13.8
74432;PMS7003;62865;53.146;23.172;2023-03-23T20:13:53;24.8;21.8;13.8
74432;PMS7003;62865;53.146;23.172;2023-03-23T20:19:07;27.4;22.8;14.2
74432;PMS7003;62865;53.146;23.172;2023-03-23T20:23:52;24.8;22.6;14.4
74432;PMS7003;62865;53.146;23.172;2023-03-23T20:29:31;24.4;21.4;13.6
74432;PMS7003;62865;53.146;23.172;2023-03-23T20:34:17;22;21;13.2
74432;PMS7003;62865;53.146;23.172;2023-03-23T20:39:30;21.2;20;13.4
74432;PMS7003;62865;53.146;23.172;2023-03-23T20:44:09;22;19.6;11.6
74432;PMS7003;62865;53.146;23.172;2023-03-23T20:48:55;21.2;18.8;11.8
74432;PMS7003;62865;53.146;23.172;2023-03-23T20:54:31;17.8;15.8;10.2
74432;PMS7003;62865;53.146;23.172;2023-03-23T20:59:15;21.8;18.4;11.2
74432;PMS7003;62865;53.146;23.172;2023-03-23T21:04:29;19;17.4;11.6
74432;PMS7003;62865;53.146;23.172;2023-03-23T21:08:51;18;15.3;10
74432;PMS7003;62865;53.146;23.172;2023-03-23T21:13:42;16;14.4;9.6
74432;PMS7003;62865;53.146;23.172;2023-03-23T21:19:17;16.4;13.6;9.8
74432;PMS7003;62865;53.146;23.172;2023-03-23T21:24:15;17.2;14.6;10.4
74432;PMS7003;62865;53.146;23.172;2023-03-23T21:29:31;15.5;13.5;10
74432;PMS7003;62865;53.146;23.172;2023-03-23T21:33:41;14.3;12.7;8
74432;PMS7003;62865;53.146;23.172;2023-03-23T21:38:41;16.3;13.5;8.3
74432;PMS7003;62865;53.146;23.172;2023-03-23T21:44:33;14.2;13;8.6
74432;PMS7003;62865;53.146;23.172;2023-03-23T21:49:01;13.4;12.2;9
74432;PMS7003;62865;53.146;23.172;2023-03-23T21:54:33;13;11.8;8.6
74432;PMS7003;62865;53.146;23.172;2023-03-23T21:59:33;14;12.2;8
74432;PMS7003;62865;53.146;23.172;2023-03-23T22:03:51;13.6;11.8;8.2
74432;PMS7003;62865;53.146;23.172;2023-03-23T22:09:31;13.2;12.2;9
74432;PMS7003;62865;53.146;23.172;2023-03-23T22:13:55;15;12.4;8.6
74432;PMS7003;62865;53.146;23.172;2023-03-23T22:19:35;14.2;12.2;8.4
74432;PMS7003;62865;53.146;23.172;2023-03-23T22:24:07;15.4;13.6;9.2
74432;PMS7003;62865;53.146;23.172;2023-03-23T22:28:41;15;13.8;9
74432;PMS7003;62865;53.146;23.172;2023-03-23T22:34:31;14.6;12.8;8.6
74432;PMS7003;62865;53.146;23.172;2023-03-23T22:38:44;14.6;11.8;8.6
74432;PMS7003;62865;53.146;23.172;2023-03-23T22:44:33;15.2;13.8;9.4
74432;PMS7003;62865;53.146;23.172;2023-03-23T22:49:07;15.4;13.4;10
74432;PMS7003;62865;53.146;23.172;2023-03-23T22:54:08;13.6;12.2;8
74432;PMS7003;62865;53.146;23.172;2023-03-23T22:59:31;19;15.6;11
74432;PMS7003;62865;53.146;23.172;2023-03-23T23:04:17;19.6;15.6;10.8
74432;PMS7003;62865;53.146;23.172;2023-03-23T23:09:33;16.8;14.6;10.2
74432;PMS7003;62865;53.146;23.172;2023-03-23T23:13:55;18;16.2;11
74432;PMS7003;62865;53.146;23.172;2023-03-23T23:19:25;21.2;17.8;12
74432;PMS7003;62865;53.146;23.172;2023-03-23T23:24:35;19.8;18;11.4
74432;PMS7003;62865;53.146;23.172;2023-03-23T23:29:17;19.2;16.6;10.8
74432;PMS7003;62865;53.146;23.172;2023-03-23T23:34:17;21.2;17.2;11.8
74432;PMS7003;62865;53.146;23.172;2023-03-23T23:39:05;19.8;17;12
74432;PMS7003;62865;53.146;23.172;2023-03-23T23:43:41;21;19.4;12.2
74432;PMS7003;62865;53.146;23.172;2023-03-23T23:49:35;22.4;19.4;12.4
74432;PMS7003;62865;53.146;23.172;2023-03-23T23:54:19;23;19.6;13.4
74432;PMS7003;62865;53.146;23.172;2023-03-23T23:59:35;20;18.6;12.6
